This is the latest recevied weather packets stored in our database for station/object ON7XX-13. If no packets are shown the sender has not sent any weather packets the latest 1 day(s).
| Time | Temp. | Humidity | Pressure | Rain* | Wind** | Luminosity | Snow |
|---|---|---|---|---|---|---|---|
| 1778092354 | 13.89° C | 71% | 1013.5 hPa | - | - | - | - |
| 1778090511 | 14.44° C | 68% | 1013.1 hPa | - | - | - | - |
| 1778087440 | 15.56° C | 67% | 1012.6 hPa | - | - | - | - |
| 1778084369 | 15.56° C | 69% | 1012.4 hPa | - | - | - | - |
| 1778082526 | 15.56° C | 68% | 1012.4 hPa | - | - | - | - |
| 1778080683 | 15.56° C | 69% | 1012.3 hPa | - | - | - | - |
| 1778078840 | 15.56° C | 70% | 1012.3 hPa | - | - | - | - |
| 1778078226 | 15.56° C | 70% | 1012.3 hPa | - | - | - | - |
| 1778076383 | 15.56° C | 70% | 1012.3 hPa | - | - | - | - |
| 1778075769 | 15.56° C | 69% | 1012.2 hPa | - | - | - | - |
| 1778075154 | 16.11° C | 68% | 1012.2 hPa | - | - | - | - |
| 1778074540 | 16.11° C | 68% | 1012.2 hPa | - | - | - | - |
| 1778073926 | 15.56° C | 69% | 1012.3 hPa | - | - | - | - |
| 1778070855 | 15° C | 69% | 1012 hPa | - | - | - | - |
| 1778068398 | 15° C | 71% | 1012 hPa | - | - | - | - |
| 1778067784 | 14.44° C | 69% | 1012.1 hPa | - | - | - | - |
| 1778065327 | 13.89° C | 72% | 1012 hPa | - | - | - | - |
| 1778064098 | 13.89° C | 73% | 1012.1 hPa | - | - | - | - |
| 1778062255 | 14.44° C | 71% | 1011.9 hPa | - | - | - | - |
| 1778061641 | 14.44° C | 72% | 1011.8 hPa | - | - | - | - |
| 1778059184 | 13.33° C | 75% | 1011.7 hPa | - | - | - | - |
| 1778058570 | 13.33° C | 75% | 1011.6 hPa | - | - | - | - |
| 1778056726 | 13.33° C | 76% | 1011.5 hPa | - | - | - | - |
| 1778055498 | 12.78° C | 79% | 1011.3 hPa | - | - | - | - |
| 1778054884 | 12.78° C | 79% | 1011.3 hPa | - | - | - | - |
* Rain since midnight (hover to see other rain measurements)
** Current wind speed in m/s (hover to see current wind gust speed)